Time;durP1;ratioP1;P1;durP2;ratioP2;P2;SDS_P1;SDS_P2;PMS_P1;PMS_P2;Temp;Humidity;BMP_temperature;BMP_pressure;BME280_temperature;BME280_humidity;BME280_pressure;Samples;Min_cycle;Max_cycle;Signal;HPM_P1;HPM_P2
2024/02/10 05:05:15;;;;;;;0.30;0.30;;;8.60;99.90;;;;;;6181068;23;20182;-87
2024/02/10 05:07:45;;;;;;;0.38;0.38;;;8.60;99.90;;;;;;4954417;29;20566;-66
2024/02/10 05:10:14;;;;;;;0.50;0.50;;;8.60;99.90;;;;;;4956470;29;20173;-66
2024/02/10 05:13:00;;;;;;;0.30;0.30;;;8.60;99.90;;;;;;4955969;29;20570;-66
2024/02/10 05:15:26;;;;;;;0.70;0.70;;;8.60;99.90;;;;;;4955847;28;20200;-66
2024/02/10 05:17:53;;;;;;;0.30;0.30;;;8.60;99.90;;;;;;4939190;29;20548;-66
2024/02/10 05:20:24;;;;;;;0.30;0.30;;;8.60;99.90;;;;;;4939007;29;20265;-68
2024/02/10 05:22:54;;;;;;;0.50;0.50;;;8.60;99.90;;;;;;4923607;29;20184;-69
2024/02/10 05:25:21;;;;;;;0.30;0.30;;;8.70;99.90;;;;;;4955723;29;20197;-67
2024/02/10 05:27:47;;;;;;;0.30;0.30;;;8.70;99.90;;;;;;4956082;29;20251;-67
2024/02/10 05:30:14;;;;;;;0.30;0.30;;;8.70;99.90;;;;;;4956170;29;20252;-67
2024/02/10 05:32:44;;;;;;;0.30;0.30;;;8.60;99.90;;;;;;4956180;29;20188;-66
2024/02/10 05:35:14;;;;;;;0.68;0.55;;;8.70;99.90;;;;;;4938480;29;20185;-67
2024/02/10 05:37:41;;;;;;;0.30;0.30;;;8.70;99.90;;;;;;4955479;29;20200;-66
2024/02/10 05:40:08;;;;;;;0.40;0.40;;;8.70;99.90;;;;;;4955988;29;20244;-67
2024/02/10 05:42:37;;;;;;;0.40;0.40;;;8.70;99.90;;;;;;4955811;28;20176;-67
2024/02/10 05:45:06;;;;;;;0.30;0.30;;;8.70;99.90;;;;;;4938815;29;20180;-67
2024/02/10 05:47:36;;;;;;;0.52;0.52;;;8.60;99.90;;;;;;4955808;29;20169;-66
2024/02/10 05:50:05;;;;;;;0.30;0.30;;;8.70;99.90;;;;;;4938518;29;20539;-66
2024/02/10 05:52:34;;;;;;;1.15;1.10;;;8.60;99.90;;;;;;4938489;29;20184;-66
2024/02/10 05:55:03;;;;;;;0.30;0.30;;;8.60;99.90;;;;;;4955087;29;20176;-67
2024/02/10 05:57:29;;;;;;;0.30;0.30;;;8.60;99.90;;;;;;4955059;29;20558;-67
2024/02/10 05:59:56;;;;;;;0.67;0.67;;;8.60;99.90;;;;;;4955537;28;20179;-67
2024/02/10 06:02:22;;;;;;;0.57;0.57;;;8.60;99.90;;;;;;4938174;29;20429;-66
2024/02/10 06:04:50;;;;;;;0.30;0.30;;;8.60;99.90;;;;;;4955419;29;20175;-66
2024/02/10 06:07:18;;;;;;;0.30;0.30;;;8.60;99.90;;;;;;4955181;29;20694;-67
2024/02/10 06:09:45;;;;;;;0.30;0.30;;;8.60;99.90;;;;;;4938819;29;20539;-67
2024/02/10 06:12:11;;;;;;;0.30;0.30;;;8.60;99.90;;;;;;4955371;29;20201;-67
2024/02/10 06:14:37;;;;;;;0.30;0.30;;;8.60;99.90;;;;;;4937967;29;20228;-67
2024/02/10 06:17:04;;;;;;;0.30;0.30;;;8.60;99.90;;;;;;4955234;29;20209;-67
2024/02/10 06:19:29;;;;;;;0.28;0.28;;;8.60;99.90;;;;;;4938248;29;20332;-67
2024/02/10 06:21:56;;;;;;;0.30;0.30;;;8.60;99.90;;;;;;4938267;29;20267;-66
2024/02/10 06:24:24;;;;;;;0.30;0.30;;;8.60;99.90;;;;;;4955072;29;20204;-68
2024/02/10 06:26:50;;;;;;;0.50;0.50;;;8.60;99.90;;;;;;4955015;28;20197;-67
2024/02/10 06:29:15;;;;;;;0.30;0.30;;;8.70;99.90;;;;;;4955637;29;20173;-67
2024/02/10 06:31:42;;;;;;;0.30;0.30;;;8.70;99.90;;;;;;4955154;29;20173;-68
2024/02/10 06:34:08;;;;;;;0.30;0.30;;;8.70;99.90;;;;;;4937846;29;20181;-67
2024/02/10 06:36:34;;;;;;;0.30;0.30;;;8.70;99.90;;;;;;4954539;29;20204;-67
2024/02/10 06:39:01;;;;;;;0.30;0.30;;;8.70;99.90;;;;;;4955189;29;20227;-67
2024/02/10 06:41:27;;;;;;;0.60;0.60;;;8.70;99.90;;;;;;4955042;29;20209;-66
2024/02/10 06:43:55;;;;;;;0.30;0.30;;;8.60;99.90;;;;;;4937825;29;20177;-67
2024/02/10 06:46:20;;;;;;;0.32;0.32;;;8.60;99.90;;;;;;4937571;29;20555;-67
2024/02/10 06:48:46;;;;;;;0.30;0.30;;;8.60;99.90;;;;;;4954865;28;20180;-67
2024/02/10 06:51:12;;;;;;;0.30;0.30;;;8.60;99.90;;;;;;4955132;29;20176;-67
2024/02/10 06:53:41;;;;;;;0.30;0.30;;;8.60;99.90;;;;;;4955177;29;20261;-67
2024/02/10 06:56:06;;;;;;;0.30;0.30;;;8.70;99.90;;;;;;4954455;28;20204;-65
2024/02/10 06:58:32;;;;;;;0.30;0.30;;;8.70;99.90;;;;;;4954766;28;20250;-67
2024/02/10 07:00:58;;;;;;;0.30;0.30;;;8.80;99.90;;;;;;4954884;29;20171;-67
2024/02/10 07:03:26;;;;;;;0.30;0.30;;;8.80;99.90;;;;;;4937951;29;20195;-67
2024/02/10 07:05:52;;;;;;;0.30;0.30;;;8.80;99.90;;;;;;4937608;29;20204;-66
2024/02/10 07:08:22;;;;;;;0.30;0.30;;;8.80;99.90;;;;;;4937751;29;20706;-66
2024/02/10 07:10:49;;;;;;;0.40;0.40;;;8.90;99.90;;;;;;4955262;29;20408;-66
2024/02/10 07:13:14;;;;;;;0.40;0.40;;;8.90;99.90;;;;;;4937972;29;20657;-67
2024/02/10 07:15:41;;;;;;;0.30;0.30;;;8.90;99.90;;;;;;4954478;28;20224;-67
2024/02/10 07:18:09;;;;;;;0.30;0.30;;;8.90;99.90;;;;;;4933710;29;20187;-66
2024/02/10 07:20:35;;;;;;;1.00;0.68;;;8.90;99.90;;;;;;4918224;29;20220;-67
2024/02/10 07:23:03;;;;;;;0.40;0.40;;;8.90;99.90;;;;;;4933638;29;20217;-66
2024/02/10 07:25:32;;;;;;;0.30;0.30;;;9.00;99.90;;;;;;4933061;29;20878;-66
2024/02/10 07:28:01;;;;;;;0.30;0.30;;;9.00;99.90;;;;;;4933588;29;20181;-66
2024/02/10 07:30:28;;;;;;;0.38;0.38;;;9.00;99.90;;;;;;4933674;29;20264;-66
2024/02/10 07:32:56;;;;;;;0.30;0.30;;;9.10;99.90;;;;;;4933572;29;20337;-67
2024/02/10 07:35:22;;;;;;;2.05;1.95;;;9.10;99.90;;;;;;4933146;29;20687;-66
2024/02/10 07:37:49;;;;;;;0.30;0.30;;;9.10;99.90;;;;;;4917767;29;20317;-66
2024/02/10 07:40:15;;;;;;;0.30;0.30;;;9.20;99.90;;;;;;4935939;29;20181;-66
2024/02/10 07:42:41;;;;;;;0.40;0.40;;;9.20;99.90;;;;;;4937062;29;20170;-66
2024/02/10 07:45:07;;;;;;;0.30;0.30;;;9.20;99.90;;;;;;4936781;29;20174;-68
2024/02/10 07:47:33;;;;;;;0.80;0.80;;;9.20;99.90;;;;;;4936873;29;20421;-62
2024/02/10 07:49:59;;;;;;;0.27;0.27;;;9.20;99.90;;;;;;4955235;29;20412;-68
2024/02/10 07:52:30;;;;;;;0.40;0.40;;;9.20;99.90;;;;;;4957857;29;20535;-66
2024/02/10 07:54:57;;;;;;;0.30;0.30;;;9.20;99.90;;;;;;4957799;29;20272;-66
2024/02/10 07:57:24;;;;;;;0.30;0.30;;;9.20;99.90;;;;;;4957847;28;20296;-66
2024/02/10 07:59:54;;;;;;;0.88;0.88;;;9.20;99.90;;;;;;4957659;29;20177;-67
2024/02/10 08:02:23;;;;;;;0.30;0.30;;;9.20;99.90;;;;;;4957838;28;20197;-65
2024/02/10 08:04:56;;;;;;;0.30;0.30;;;9.20;99.90;;;;;;4957266;29;20176;-67
2024/02/10 08:07:32;;;;;;;2.45;2.25;;;9.20;99.90;;;;;;4957597;29;20291;-65
2024/02/10 08:09:59;;;;;;;0.30;0.30;;;9.20;99.90;;;;;;4957561;29;20165;-69
2024/02/10 08:12:26;;;;;;;0.30;0.30;;;9.20;99.90;;;;;;4957388;28;20176;-68
2024/02/10 08:14:54;;;;;;;0.45;0.45;;;9.20;99.90;;;;;;4956886;29;20177;-69
2024/02/10 08:17:21;;;;;;;0.30;0.30;;;9.30;99.90;;;;;;4940250;29;20216;-67
2024/02/10 08:20:11;;;;;;;0.30;0.30;;;9.30;99.90;;;;;;4956346;29;20182;-68
2024/02/10 08:22:36;;;;;;;0.95;0.68;;;9.40;99.90;;;;;;4943222;29;20185;-67
2024/02/10 08:25:07;;;;;;;0.30;0.30;;;9.50;99.90;;;;;;4957052;29;20184;-67
2024/02/10 08:27:33;;;;;;;0.30;0.30;;;9.50;99.90;;;;;;4940425;29;20225;-66
2024/02/10 08:30:03;;;;;;;0.30;0.30;;;9.50;99.90;;;;;;4939778;29;20197;-70
2024/02/10 08:32:31;;;;;;;0.30;0.30;;;9.60;99.90;;;;;;4957314;29;20491;-66
2024/02/10 08:35:00;;;;;;;0.30;0.30;;;9.70;99.90;;;;;;4956992;29;20532;-69
2024/02/10 08:37:29;;;;;;;0.30;0.30;;;9.70;99.90;;;;;;4940245;29;20619;-69
2024/02/10 08:39:57;;;;;;;0.30;0.30;;;9.70;99.90;;;;;;4939948;29;20177;-69
2024/02/10 08:42:23;;;;;;;0.30;0.30;;;9.70;99.90;;;;;;4957226;29;20413;-72
2024/02/10 08:44:49;;;;;;;0.30;0.30;;;9.80;99.90;;;;;;4956736;29;20639;-67
2024/02/10 08:47:15;;;;;;;0.30;0.30;;;9.80;99.90;;;;;;4956837;29;20537;-69
2024/02/10 08:49:42;;;;;;;0.30;0.30;;;9.80;99.90;;;;;;4939627;28;20204;-64
2024/02/10 08:52:14;;;;;;;0.30;0.30;;;9.80;99.90;;;;;;4956981;29;20204;-67
2024/02/10 08:54:39;;;;;;;0.30;0.30;;;9.80;99.90;;;;;;4956778;29;20834;-67
2024/02/10 08:57:09;;;;;;;0.30;0.20;;;9.80;99.90;;;;;;4939538;29;20209;-69
2024/02/10 08:59:40;;;;;;;0.30;0.30;;;9.70;99.90;;;;;;4956857;29;20667;-66
2024/02/10 09:02:06;;;;;;;0.30;0.30;;;9.80;99.90;;;;;;4956669;29;20247;-66
2024/02/10 09:04:34;;;;;;;0.40;0.40;;;9.80;99.90;;;;;;4956513;29;20425;-65
2024/02/10 09:07:00;;;;;;;0.30;0.30;;;9.80;99.90;;;;;;4956299;29;20293;-64
2024/02/10 09:09:27;;;;;;;0.30;0.30;;;9.90;99.90;;;;;;4939528;29;20671;-64
2024/02/10 09:11:53;;;;;;;0.30;0.30;;;9.90;99.90;;;;;;4956754;29;20413;-67
2024/02/10 09:14:19;;;;;;;0.30;0.30;;;9.90;99.90;;;;;;4956424;29;20414;-69
2024/02/10 09:16:46;;;;;;;0.30;0.30;;;10.00;99.90;;;;;;4955983;29;20529;-67
2024/02/10 09:19:20;;;;;;;0.30;0.30;;;10.00;99.90;;;;;;4956443;29;20174;-65
2024/02/10 09:21:55;;;;;;;0.90;0.90;;;10.00;99.90;;;;;;4965361;28;20916;-65
2024/02/10 09:24:25;;;;;;;4.00;1.70;;;10.10;99.90;;;;;;4974030;28;20460;-69
2024/02/10 09:26:55;;;;;;;0.38;0.38;;;10.10;99.90;;;;;;4974767;28;20487;-68
2024/02/10 09:29:21;;;;;;;0.38;0.38;;;10.20;99.90;;;;;;4975174;28;20180;-64
2024/02/10 09:31:47;;;;;;;0.30;0.30;;;10.20;99.90;;;;;;4975359;28;20698;-64
2024/02/10 09:34:13;;;;;;;0.30;0.30;;;10.20;99.90;;;;;;4974070;28;20600;-64
2024/02/10 09:36:43;;;;;;;0.30;0.30;;;10.20;99.90;;;;;;4974829;28;20564;-66
2024/02/10 09:39:12;;;;;;;0.33;0.33;;;10.30;99.90;;;;;;4975204;28;20641;-65
2024/02/10 09:41:39;;;;;;;0.30;0.20;;;10.30;99.90;;;;;;4973873;28;20411;-63
2024/02/10 09:44:09;;;;;;;0.70;0.70;;;10.30;99.90;;;;;;4975152;28;20397;-64
2024/02/10 09:46:36;;;;;;;0.30;0.30;;;10.30;99.90;;;;;;4973387;28;20984;-65
2024/02/10 09:49:07;;;;;;;0.97;0.50;;;10.40;99.90;;;;;;4957777;28;20464;-65
2024/02/10 09:51:42;;;;;;;0.30;0.30;;;10.40;99.90;;;;;;4975124;28;20447;-66
2024/02/10 09:54:08;;;;;;;0.30;0.30;;;10.40;99.90;;;;;;4973840;28;20411;-66
2024/02/10 09:56:35;;;;;;;0.30;0.30;;;10.40;99.90;;;;;;4974578;28;20860;-65
2024/02/10 09:59:02;;;;;;;0.30;0.30;;;10.40;99.90;;;;;;4974942;28;20409;-65
2024/02/10 10:01:32;;;;;;;0.40;0.40;;;10.40;99.90;;;;;;4974195;28;20432;-64
2024/02/10 10:04:00;;;;;;;0.50;0.50;;;10.40;99.90;;;;;;4974956;28;20714;-63
2024/02/10 10:06:27;;;;;;;0.30;0.20;;;10.40;99.90;;;;;;4964245;28;20409;-65
2024/02/10 10:08:53;;;;;;;0.30;0.30;;;10.40;99.90;;;;;;4971817;28;20904;-64
2024/02/10 10:11:21;;;;;;;0.30;0.30;;;10.40;99.90;;;;;;4974605;28;20424;-66
2024/02/10 10:13:46;;;;;;;1.23;1.13;;;10.40;99.90;;;;;;4972711;28;20409;-65
2024/02/10 10:16:12;;;;;;;0.40;0.40;;;10.40;99.90;;;;;;4974020;28;20825;-65
2024/02/10 10:18:39;;;;;;;0.40;0.40;;;10.40;99.90;;;;;;4972739;28;20183;-64
2024/02/10 10:21:06;;;;;;;0.30;0.30;;;10.30;99.90;;;;;;4974508;28;20644;-66
2024/02/10 10:23:35;;;;;;;0.30;0.30;;;10.20;99.90;;;;;;4973265;28;20907;-65
2024/02/10 10:26:01;;;;;;;0.30;0.30;;;10.20;99.90;;;;;;4973851;28;20931;-65
2024/02/10 10:28:30;;;;;;;0.30;0.30;;;10.30;99.90;;;;;;4974461;28;20439;-66
2024/02/10 10:30:57;;;;;;;0.30;0.30;;;10.30;99.90;;;;;;4970165;28;20424;-66
2024/02/10 10:33:25;;;;;;;0.30;0.30;;;10.40;99.90;;;;;;4969656;28;20408;-64
2024/02/10 10:35:54;;;;;;;0.57;0.57;;;10.40;99.90;;;;;;4973645;28;20951;-64
2024/02/10 10:38:23;;;;;;;0.30;0.30;;;10.50;99.90;;;;;;4974076;28;20902;-64
2024/02/10 10:40:53;;;;;;;0.30;0.30;;;10.50;99.90;;;;;;4960390;28;20415;-65
2024/02/10 10:43:21;;;;;;;0.30;0.30;;;10.40;99.90;;;;;;4964390;28;20431;-65
2024/02/10 10:45:47;;;;;;;0.30;0.30;;;10.40;99.90;;;;;;4956961;28;20741;-64
2024/02/10 10:48:13;;;;;;;0.50;0.50;;;10.40;99.90;;;;;;4960687;28;20754;-64
2024/02/10 10:50:39;;;;;;;0.50;0.50;;;10.40;99.90;;;;;;4954815;29;20422;-63
2024/02/10 10:53:09;;;;;;;0.33;0.33;;;10.40;99.90;;;;;;4954955;29;20749;-64
2024/02/10 10:55:43;;;;;;;1.70;1.70;;;10.40;99.90;;;;;;4954498;29;20194;-63
2024/02/10 10:58:19;;;;;;;0.30;0.30;;;10.40;99.90;;;;;;4953508;29;20840;-65
2024/02/10 11:00:47;;;;;;;0.83;0.70;;;10.40;99.90;;;;;;4954901;29;20458;-68
2024/02/10 11:03:16;;;;;;;0.30;0.30;;;10.40;99.90;;;;;;4955043;29;20397;-68
2024/02/10 11:05:43;;;;;;;0.30;0.30;;;10.50;99.90;;;;;;4954549;29;20902;-68
2024/02/10 11:08:13;;;;;;;0.30;0.30;;;10.60;99.90;;;;;;4954869;29;20431;-67
2024/02/10 11:10:48;;;;;;;0.30;0.30;;;10.60;99.90;;;;;;4954036;28;20975;-65
2024/02/10 11:13:26;;;;;;;0.50;0.50;;;10.70;99.90;;;;;;4954795;28;20789;-65
2024/02/10 11:16:03;;;;;;;0.40;0.40;;;10.70;99.90;;;;;;4958073;29;20453;-67
2024/02/10 11:18:37;;;;;;;0.40;0.40;;;10.70;99.90;;;;;;4958985;29;20382;-66
2024/02/10 11:21:10;;;;;;;0.30;0.30;;;10.70;99.90;;;;;;4958875;29;20765;-65
2024/02/10 11:23:40;;;;;;;0.30;0.30;;;10.70;99.90;;;;;;4958629;29;20438;-66
2024/02/10 11:26:09;;;;;;;0.70;0.70;;;10.60;99.90;;;;;;4958130;29;20442;-65
2024/02/10 11:28:38;;;;;;;0.30;0.30;;;10.60;99.90;;;;;;4958444;29;20436;-66
2024/02/10 11:31:09;;;;;;;0.30;0.30;;;10.60;99.90;;;;;;4958386;28;20421;-68
2024/02/10 11:33:36;;;;;;;0.30;0.30;;;10.60;99.90;;;;;;4958389;29;20387;-64
2024/02/10 11:36:02;;;;;;;0.30;0.30;;;10.50;99.90;;;;;;4957769;29;20458;-65
2024/02/10 11:38:28;;;;;;;0.30;0.30;;;10.50;99.90;;;;;;4958233;28;20435;-67
2024/02/10 11:40:54;;;;;;;0.30;0.30;;;10.40;99.90;;;;;;4958489;28;20414;-66
2024/02/10 11:43:19;;;;;;;0.30;0.30;;;10.50;99.90;;;;;;4958354;29;20178;-66
2024/02/10 11:45:45;;;;;;;1.57;1.57;;;10.50;99.90;;;;;;4957458;29;20935;-66
2024/02/10 11:48:12;;;;;;;1.47;1.27;;;10.60;99.90;;;;;;4958623;28;20218;-72
2024/02/10 11:50:45;;;;;;;0.30;0.30;;;10.60;99.90;;;;;;4958018;28;20166;-64
2024/02/10 11:53:15;;;;;;;0.30;0.27;;;10.70;99.90;;;;;;4956819;29;20414;-68
2024/02/10 11:55:43;;;;;;;0.40;0.40;;;10.80;99.90;;;;;;4958180;29;20446;-70
2024/02/10 11:58:16;;;;;;;0.30;0.30;;;10.90;99.90;;;;;;4959812;29;20411;-72
2024/02/10 12:00:44;;;;;;;0.30;0.30;;;11.00;99.90;;;;;;4958509;29;20414;-70
2024/02/10 12:03:13;;;;;;;0.77;0.77;;;11.00;99.90;;;;;;4957990;29;20429;-70
2024/02/10 12:05:40;;;;;;;0.30;0.30;;;11.10;99.90;;;;;;4959071;29;20486;-67
2024/02/10 12:08:09;;;;;;;0.30;0.30;;;11.10;99.90;;;;;;4958793;29;20431;-70
2024/02/10 12:10:38;;;;;;;0.30;0.20;;;11.20;99.90;;;;;;4957691;29;20502;-67
2024/02/10 12:13:05;;;;;;;0.30;0.30;;;11.30;99.90;;;;;;4957846;29;20435;-68
2024/02/10 12:15:31;;;;;;;0.30;0.30;;;11.30;99.90;;;;;;4958046;29;20414;-69
2024/02/10 12:18:01;;;;;;;0.30;0.20;;;11.40;99.90;;;;;;4959051;29;20542;-68
2024/02/10 12:20:29;;;;;;;0.40;0.40;;;11.40;99.90;;;;;;4958218;28;20411;-65
2024/02/10 12:22:55;;;;;;;0.30;0.30;;;11.50;99.90;;;;;;4960440;28;20416;-67
2024/02/10 12:25:22;;;;;;;0.30;0.30;;;11.60;99.90;;;;;;4959210;28;20490;-69
2024/02/10 12:27:51;;;;;;;0.30;0.30;;;11.70;99.90;;;;;;4957879;28;20408;-72
2024/02/10 12:30:16;;;;;;;0.30;0.30;;;11.70;99.90;;;;;;4957760;29;20397;-70
2024/02/10 12:32:42;;;;;;;0.30;0.30;;;11.80;99.90;;;;;;4957474;29;20966;-70
2024/02/10 12:35:16;;;;;;;1.00;0.73;;;11.90;99.90;;;;;;4957028;29;20203;-73
2024/02/10 12:37:50;;;;;;;0.30;0.30;;;12.00;99.90;;;;;;4957094;29;20219;-68
2024/02/10 12:40:21;;;;;;;0.30;0.20;;;12.00;99.90;;;;;;4956950;29;20462;-68
2024/02/10 12:42:47;;;;;;;0.30;0.30;;;12.10;99.90;;;;;;4957164;29;20379;-70
2024/02/10 12:45:15;;;;;;;0.30;0.20;;;12.00;99.90;;;;;;4956563;28;20432;-69
2024/02/10 12:47:45;;;;;;;0.40;0.40;;;12.00;99.90;;;;;;4940036;29;20562;-74
2024/02/10 12:50:11;;;;;;;0.30;0.30;;;11.90;99.90;;;;;;4955643;29;20441;-70
2024/02/10 12:52:40;;;;;;;0.30;0.30;;;12.00;99.90;;;;;;4956956;29;20849;-73
2024/02/10 12:55:10;;;;;;;0.30;0.30;;;12.00;99.90;;;;;;4956274;29;20419;-70
2024/02/10 12:57:38;;;;;;;0.30;0.30;;;11.90;99.90;;;;;;4956701;29;20451;-68
2024/02/10 13:00:18;;;;;;;1.80;0.87;;;11.90;99.90;;;;;;4956710;29;20383;-68
2024/02/10 13:02:46;;;;;;;0.30;0.30;;;11.90;99.90;;;;;;4956486;29;20395;-68
2024/02/10 13:05:12;;;;;;;0.30;0.20;;;11.90;99.90;;;;;;4955936;29;20389;-73
2024/02/10 13:07:41;;;;;;;0.30;0.30;;;11.90;99.90;;;;;;4955042;29;20443;-68
2024/02/10 13:10:18;;;;;;;0.30;0.30;;;11.90;99.90;;;;;;4956275;29;20751;-68
2024/02/10 13:12:51;;;;;;;0.30;0.30;;;12.00;99.90;;;;;;4956399;29;20415;-71
2024/02/10 13:15:17;;;;;;;0.40;0.40;;;12.00;99.90;;;;;;4955916;29;20404;-69
2024/02/10 13:17:43;;;;;;;0.30;0.30;;;12.00;99.90;;;;;;4956141;29;20456;-70
2024/02/10 13:20:11;;;;;;;0.30;0.30;;;11.90;99.90;;;;;;4956096;28;20492;-65
2024/02/10 13:22:37;;;;;;;0.50;0.50;;;11.80;99.90;;;;;;4956240;29;20506;-64
2024/02/10 13:25:05;;;;;;;0.30;0.30;;;11.80;99.90;;;;;;4956299;29;20466;-69
2024/02/10 13:27:31;;;;;;;0.30;0.30;;;11.70;99.90;;;;;;4956121;28;20390;-67
2024/02/10 13:29:58;;;;;;;0.30;0.20;;;11.70;99.90;;;;;;4956119;29;20496;-67
2024/02/10 13:32:25;;;;;;;0.60;0.60;;;11.70;99.90;;;;;;4956370;29;20169;-70
2024/02/10 13:34:55;;;;;;;0.30;0.30;;;11.80;99.90;;;;;;4955541;29;20382;-68
2024/02/10 14:04:40;;;;;;;0.30;0.30;;;12.90;99.90;;;;;;4955309;29;20798;-68
2024/02/10 14:07:27;;;;;;;0.50;0.50;;;12.90;99.90;;;;;;4955237;29;20427;-69
2024/02/10 14:09:53;;;;;;;0.30;0.30;;;12.80;99.90;;;;;;4955468;29;20401;-68
2024/02/10 14:12:19;;;;;;;0.30;0.30;;;12.80;99.90;;;;;;4954246;28;20474;-68
2024/02/10 14:14:44;;;;;;;0.40;0.40;;;12.70;99.90;;;;;;4955156;28;20466;-68
2024/02/10 14:17:14;;;;;;;0.30;0.30;;;12.60;99.90;;;;;;4954061;28;20295;-68
2024/02/10 14:19:48;;;;;;;0.73;0.73;;;12.50;99.90;;;;;;4955360;29;20193;-68
2024/02/10 14:22:15;;;;;;;0.50;0.40;;;12.40;99.90;;;;;;4955528;29;20450;-68
2024/02/10 14:24:45;;;;;;;0.30;0.27;;;12.30;99.90;;;;;;4955087;29;20408;-68
2024/02/10 14:27:14;;;;;;;0.30;0.30;;;12.30;99.90;;;;;;4954072;29;20403;-69
2024/02/10 14:29:40;;;;;;;0.57;0.50;;;12.20;99.90;;;;;;4955391;29;20731;-68
2024/02/10 14:32:09;;;;;;;0.30;0.30;;;12.10;99.90;;;;;;4955254;29;20519;-68
2024/02/10 14:37:26;;;;;;;0.30;0.27;;;12.00;99.90;;;;;;4955379;29;20554;-68
2024/02/10 14:39:56;;;;;;;0.67;0.40;;;12.00;99.90;;;;;;4955154;29;20407;-68
2024/02/10 14:42:22;;;;;;;0.30;0.30;;;12.00;99.90;;;;;;4955273;29;20384;-69
2024/02/10 14:44:47;;;;;;;0.30;0.30;;;12.10;99.90;;;;;;4955104;28;20407;-68
2024/02/10 14:47:14;;;;;;;0.30;0.30;;;12.10;99.90;;;;;;4955223;28;20443;-68
2024/02/10 14:49:40;;;;;;;0.40;0.40;;;12.10;99.90;;;;;;4954953;28;20214;-68
2024/02/10 14:52:05;;;;;;;0.30;0.30;;;12.10;99.90;;;;;;4955336;29;20819;-68
2024/02/10 14:54:31;;;;;;;1.40;1.30;;;12.10;99.90;;;;;;4955034;29;20602;-68
2024/02/10 14:56:56;;;;;;;0.30;0.30;;;12.10;99.90;;;;;;4955176;29;20610;-68
2024/02/10 14:59:22;;;;;;;0.97;0.60;;;12.10;99.90;;;;;;4955069;29;20242;-68
2024/02/10 15:01:48;;;;;;;0.30;0.20;;;12.10;99.90;;;;;;4954922;29;20180;-68
2024/02/10 15:04:15;;;;;;;0.33;0.33;;;12.10;99.90;;;;;;4953746;29;20172;-68
2024/02/10 15:06:41;;;;;;;0.30;0.30;;;12.10;99.90;;;;;;4954493;29;20822;-68
2024/02/10 15:09:10;;;;;;;0.40;0.40;;;12.10;99.90;;;;;;4954933;29;20436;-67
2024/02/10 15:11:37;;;;;;;0.30;0.30;;;12.10;99.90;;;;;;4953747;28;20474;-69
2024/02/10 15:14:06;;;;;;;0.30;0.30;;;12.00;99.90;;;;;;4955125;29;20418;-68
2024/02/10 15:16:31;;;;;;;0.30;0.30;;;12.00;99.90;;;;;;4953141;29;20475;-69
2024/02/10 15:18:58;;;;;;;0.30;0.30;;;11.90;99.90;;;;;;4954817;29;20450;-68
2024/02/10 15:21:28;;;;;;;0.30;0.20;;;11.90;99.90;;;;;;4955213;29;20172;-68
2024/02/10 15:23:56;;;;;;;0.30;0.30;;;11.80;99.90;;;;;;4953995;29;20424;-68
2024/02/10 15:26:23;;;;;;;0.30;0.30;;;11.80;99.90;;;;;;4955419;29;20440;-67
2024/02/10 15:28:51;;;;;;;0.40;0.40;;;11.80;99.90;;;;;;4954742;29;20444;-67
2024/02/10 15:31:19;;;;;;;0.47;0.40;;;11.80;99.90;;;;;;4954759;28;20774;-67
2024/02/10 15:33:55;;;;;;;0.60;0.60;;;11.80;99.90;;;;;;4953726;29;20506;-67
2024/02/10 15:36:40;;;;;;;0.30;0.27;;;11.80;99.90;;;;;;4954493;29;20461;-68
2024/02/10 15:39:06;;;;;;;0.30;0.30;;;11.70;99.90;;;;;;4953287;28;20960;-68
2024/02/10 15:41:33;;;;;;;0.30;0.30;;;11.80;99.90;;;;;;4954633;29;20523;-69
2024/02/10 15:44:05;;;;;;;0.50;0.50;;;11.70;99.90;;;;;;4955078;29;20203;-68
2024/02/10 15:46:32;;;;;;;0.40;0.40;;;11.70;99.90;;;;;;4954681;29;20513;-68
2024/02/10 15:49:01;;;;;;;0.30;0.30;;;11.60;99.90;;;;;;4953460;29;20394;-69
2024/02/10 15:51:27;;;;;;;0.30;0.30;;;11.60;99.90;;;;;;4954551;29;20740;-67
2024/02/10 15:53:52;;;;;;;0.30;0.30;;;11.60;99.90;;;;;;4954522;29;20389;-67
2024/02/10 15:56:18;;;;;;;0.30;0.20;;;11.50;99.90;;;;;;4954453;29;20202;-68
2024/02/10 15:58:45;;;;;;;0.30;0.30;;;11.60;99.90;;;;;;4954527;29;20250;-68
2024/02/10 16:01:21;;;;;;;0.30;0.30;;;11.50;99.90;;;;;;4940454;29;20176;-68
2024/02/10 16:03:51;;;;;;;0.90;0.53;;;11.50;99.90;;;;;;4958108;29;20429;-69
2024/02/10 16:06:17;;;;;;;0.40;0.40;;;11.40;99.90;;;;;;4957411;29;20441;-68
2024/02/10 16:08:46;;;;;;;0.43;0.43;;;11.30;99.90;;;;;;4957391;29;20478;-68
2024/02/10 16:11:14;;;;;;;0.40;0.40;;;11.20;99.90;;;;;;4958850;29;20406;-67
2024/02/10 16:13:39;;;;;;;0.30;0.20;;;11.20;99.90;;;;;;4957323;29;20389;-69
2024/02/10 16:16:06;;;;;;;0.40;0.40;;;11.10;99.90;;;;;;4957286;28;20433;-69
2024/02/10 16:18:35;;;;;;;0.50;0.50;;;11.10;99.90;;;;;;4957977;29;20166;-67
2024/02/10 16:21:00;;;;;;;0.77;0.60;;;11.10;99.90;;;;;;4956197;29;20911;-69
2024/02/10 16:23:27;;;;;;;0.30;0.30;;;11.00;99.90;;;;;;4957519;29;20417;-71
2024/02/10 16:25:53;;;;;;;0.40;0.40;;;10.90;99.90;;;;;;4940054;29;20622;-72
2024/02/10 16:28:18;;;;;;;0.30;0.30;;;10.90;99.90;;;;;;4957762;29;20477;-66
2024/02/10 16:30:44;;;;;;;0.33;0.33;;;10.80;99.90;;;;;;4958648;29;20410;-67
2024/02/10 16:33:11;;;;;;;0.30;0.30;;;10.70;99.90;;;;;;4957675;29;20246;-70
2024/02/10 16:35:37;;;;;;;0.98;0.88;;;10.70;99.90;;;;;;4957448;29;20217;-68
2024/02/10 16:38:03;;;;;;;0.40;0.40;;;10.60;99.90;;;;;;4957826;28;20304;-67
2024/02/10 16:40:35;;;;;;;0.30;0.30;;;10.60;99.90;;;;;;4957972;29;20868;-65
2024/02/10 16:43:03;;;;;;;0.30;0.30;;;10.50;99.90;;;;;;4957800;29;20305;-65
2024/02/10 16:45:31;;;;;;;0.65;0.65;;;10.40;99.90;;;;;;4955733;28;20200;-67
2024/02/10 16:47:57;;;;;;;0.30;0.30;;;10.30;99.90;;;;;;4957309;28;20185;-68
2024/02/10 16:50:24;;;;;;;0.30;0.30;;;10.30;99.90;;;;;;4957466;29;20440;-65
2024/02/10 16:52:59;;;;;;;0.30;0.30;;;10.20;99.90;;;;;;4957160;28;20213;-66
2024/02/10 16:55:26;;;;;;;0.30;0.20;;;10.10;99.90;;;;;;4956917;29;20269;-66
2024/02/10 16:57:52;;;;;;;0.30;0.30;;;10.00;99.90;;;;;;4957109;29;20192;-65
2024/02/10 17:00:24;;;;;;;0.40;0.40;;;10.00;99.90;;;;;;4956943;28;20164;-66
2024/02/10 17:03:00;;;;;;;0.30;0.30;;;10.00;99.90;;;;;;4956912;29;20523;-67
2024/02/10 17:05:28;;;;;;;0.30;0.30;;;9.90;99.90;;;;;;4956532;29;20559;-72
2024/02/10 17:07:57;;;;;;;0.30;0.30;;;9.90;99.90;;;;;;4955236;28;20209;-65
2024/02/10 17:10:23;;;;;;;8.65;1.00;;;9.80;99.90;;;;;;4955663;28;20184;-66
2024/02/10 17:12:48;;;;;;;0.30;0.30;;;9.80;99.90;;;;;;4956615;28;20180;-63
2024/02/10 17:15:14;;;;;;;0.30;0.30;;;9.80;99.90;;;;;;4955808;29;20541;-64
2024/02/10 17:17:39;;;;;;;0.30;0.30;;;9.80;99.90;;;;;;4956739;29;20243;-66
2024/02/10 17:20:06;;;;;;;0.50;0.50;;;9.70;99.90;;;;;;4956260;28;20223;-69
2024/02/10 17:22:32;;;;;;;0.30;0.30;;;9.70;99.90;;;;;;4956443;29;20523;-67
2024/02/10 17:24:58;;;;;;;0.38;0.38;;;9.70;99.90;;;;;;4956134;29;20176;-70
2024/02/10 17:27:23;;;;;;;0.30;0.30;;;9.70;99.90;;;;;;4955435;28;20173;-68
2024/02/10 17:29:52;;;;;;;0.30;0.30;;;9.60;99.90;;;;;;4956388;28;20185;-70
2024/02/10 17:32:18;;;;;;;0.30;0.30;;;9.60;99.90;;;;;;4957913;28;20200;-70
2024/02/10 17:34:44;;;;;;;0.30;0.30;;;9.70;99.90;;;;;;4957323;29;20309;-71
2024/02/10 17:37:09;;;;;;;0.30;0.30;;;9.70;99.90;;;;;;4956414;28;20467;-71
2024/02/10 17:39:38;;;;;;;0.30;0.20;;;9.60;99.90;;;;;;4956579;28;20169;-71
2024/02/10 17:42:06;;;;;;;1.00;1.00;;;9.60;99.90;;;;;;4955413;29;20184;-71
2024/02/10 17:44:32;;;;;;;0.30;0.30;;;9.60;99.90;;;;;;4956365;29;20165;-68
2024/02/10 17:46:59;;;;;;;0.30;0.30;;;9.60;99.90;;;;;;4956135;28;20858;-69
2024/02/10 17:49:25;;;;;;;0.30;0.30;;;9.60;99.90;;;;;;4954734;29;20267;-68
2024/02/10 17:51:52;;;;;;;0.30;0.30;;;9.70;99.90;;;;;;4956019;28;20581;-68
2024/02/10 17:54:20;;;;;;;0.90;0.90;;;9.70;99.90;;;;;;4956202;28;20437;-71
2024/02/10 17:56:47;;;;;;;0.30;0.30;;;9.70;99.90;;;;;;4954571;28;20292;-70
2024/02/10 17:59:13;;;;;;;0.40;0.40;;;9.70;99.90;;;;;;4956471;29;20258;-71
2024/02/10 18:01:41;;;;;;;0.30;0.30;;;9.80;99.90;;;;;;4955071;28;20655;-69
2024/02/10 18:04:09;;;;;;;0.30;0.20;;;9.70;99.90;;;;;;4955126;29;20230;-70
2024/02/10 18:06:34;;;;;;;0.30;0.30;;;9.80;99.90;;;;;;4956453;28;20218;-71
2024/02/10 18:09:00;;;;;;;0.30;0.30;;;9.80;99.90;;;;;;4975150;28;20189;-68
2024/02/10 18:11:26;;;;;;;0.30;0.30;;;9.80;99.90;;;;;;4975080;28;20181;-71
2024/02/10 18:13:53;;;;;;;0.30;0.30;;;9.80;99.90;;;;;;4957874;28;20178;-70
2024/02/10 18:16:22;;;;;;;0.30;0.30;;;9.70;99.90;;;;;;4973383;28;20292;-68
2024/02/10 18:18:48;;;;;;;0.30;0.30;;;9.80;99.90;;;;;;4975116;28;20408;-69
2024/02/10 18:21:15;;;;;;;4.83;1.60;;;9.80;99.90;;;;;;4974782;28;20603;-70
2024/02/10 18:23:40;;;;;;;0.30;0.30;;;9.80;99.90;;;;;;4974285;28;20184;-70
2024/02/10 18:26:06;;;;;;;0.20;0.20;;;9.80;99.90;;;;;;4974165;28;20284;-67
2024/02/10 18:28:33;;;;;;;0.20;0.20;;;9.80;99.90;;;;;;4957373;28;20332;-68